Time;durP1;ratioP1;P1;durP2;ratioP2;P2;SDS_P1;SDS_P2;PMS_P1;PMS_P2;Temp;Humidity;BMP_temperature;BMP_pressure;BME280_temperature;BME280_humidity;BME280_pressure;Samples;Min_cycle;Max_cycle;Signal;HPM_P1;HPM_P2
2022/06/07 00:00:14;;;;;;;;;;;17.30;99.90;;;16.16;100.00;95603.56;10486576;28;1803;-73
2022/06/07 00:05:18;;;;;;;;;;;17.10;99.90;;;15.99;100.00;95608.09;10507604;28;1928;-73
2022/06/07 00:10:22;;;;;;;;;;;16.90;99.90;;;16.02;100.00;95612.88;10505745;28;1847;-73
2022/06/07 00:15:25;;;;;;;;;;;16.80;99.90;;;16.00;100.00;95605.06;10509207;28;1992;-73
2022/06/07 00:20:28;;;;;;;;;;;16.80;99.90;;;16.01;100.00;95603.16;10507184;28;1784;-72
2022/06/07 00:25:31;;;;;;;;;;;16.70;99.90;;;15.95;100.00;95613.34;10511975;28;1781;-73
2022/06/07 00:30:34;;;;;;;;;;;16.80;99.90;;;15.84;100.00;95633.69;10510010;28;1837;-73
2022/06/07 00:35:38;;;;;;;;;;;16.70;99.90;;;15.62;100.00;95635.31;10489850;28;2250;-73
2022/06/07 00:40:41;;;;;;;;;;;16.50;99.90;;;15.45;100.00;95635.16;10484753;28;2663;-73
2022/06/07 00:45:45;;;;;;;;;;;16.40;99.90;;;15.31;100.00;95647.94;10483323;28;1824;-74
2022/06/07 00:50:49;;;;;;;;;;;16.10;99.90;;;15.18;100.00;95652.31;10498444;28;1760;-74
2022/06/07 00:55:53;;;;;;;;;;;16.00;99.90;;;15.19;100.00;95661.22;10498235;28;1913;-74
2022/06/07 01:00:56;;;;;;;;;;;16.00;99.90;;;14.89;100.00;95668.94;10502469;28;1811;-73
2022/06/07 01:10:43;;;;;;;;;;;15.70;99.90;;;14.58;100.00;95674.97;10495844;28;1959;-75
2022/06/07 01:11:23;;;;;;;;;;;15.40;99.90;;;14.25;100.00;95670.69;10487685;28;1983;-75
2022/06/07 01:16:32;;;;;;;;;;;15.20;99.90;;;14.02;100.00;95673.28;10502183;28;1955;-74
2022/06/07 01:21:35;;;;;;;;;;;14.90;99.90;;;13.90;100.00;95664.84;10498313;28;1983;-74
2022/06/07 01:26:44;;;;;;;;;;;14.70;99.90;;;13.78;100.00;95662.59;10483009;28;1975;-76
2022/06/07 01:31:50;;;;;;;;;;;14.60;99.90;;;13.70;100.00;95662.50;10497823;28;1905;-75
2022/06/07 01:36:56;;;;;;;;;;;14.30;99.90;;;13.69;100.00;95663.59;10485684;28;1913;-77
2022/06/07 01:41:59;;;;;;;;;;;14.50;99.90;;;13.57;100.00;95652.44;10504424;28;2395;-76
2022/06/07 01:47:02;;;;;;;;;;;14.50;99.90;;;13.49;100.00;95643.94;10510863;28;1967;-75
2022/06/07 01:52:05;;;;;;;;;;;14.20;99.90;;;13.31;100.00;95631.25;10496344;28;1931;-75
2022/06/07 01:57:09;;;;;;;;;;;14.40;99.90;;;13.43;100.00;95623.50;10506834;28;1939;-73
2022/06/07 02:02:13;;;;;;;;;;;14.10;99.90;;;13.32;100.00;95613.97;10491554;28;1956;-75
2022/06/07 02:07:16;;;;;;;;;;;14.10;99.90;;;13.42;100.00;95605.72;10501603;28;1951;-75
2022/06/07 02:12:19;;;;;;;;;;;13.90;99.90;;;13.16;100.00;95599.84;10515461;28;1931;-75
2022/06/07 02:17:23;;;;;;;;;;;14.10;99.90;;;13.32;100.00;95605.06;10503684;28;1923;-75
2022/06/07 02:22:26;;;;;;;;;;;14.00;99.90;;;13.24;100.00;95609.25;10500808;28;1923;-76
2022/06/07 02:27:30;;;;;;;;;;;13.90;99.90;;;13.28;100.00;95612.13;10504411;28;2031;-76
2022/06/07 02:32:34;;;;;;;;;;;14.00;99.90;;;13.33;100.00;95607.47;10497080;28;1975;-75
2022/06/07 02:37:37;;;;;;;;;;;14.00;99.90;;;13.23;100.00;95618.41;10505010;28;1993;-73
2022/06/07 02:42:41;;;;;;;;;;;13.90;99.90;;;13.10;100.00;95613.72;10498027;28;1955;-74
2022/06/07 02:47:44;;;;;;;;;;;13.90;99.90;;;13.14;100.00;95615.56;10491969;28;2255;-76
2022/06/07 02:52:47;;;;;;;;;;;13.80;99.90;;;12.98;100.00;95606.91;10489715;28;1917;-74
2022/06/07 02:57:51;;;;;;;;;;;13.80;99.90;;;12.98;100.00;95623.09;10484997;28;2096;-74
2022/06/07 03:02:54;;;;;;;;;;;13.80;99.90;;;13.07;100.00;95617.03;10483109;28;1994;-73
2022/06/07 03:07:57;;;;;;;;;;;14.00;99.90;;;13.10;100.00;95619.13;10506592;28;2001;-76
2022/06/07 03:13:00;;;;;;;;;;;13.90;99.90;;;13.16;100.00;95623.34;10484762;28;1980;-74
2022/06/07 03:18:04;;;;;;;;;;;13.90;99.90;;;13.30;100.00;95634.25;10503696;28;2260;-76
2022/06/07 03:23:07;;;;;;;;;;;13.90;99.90;;;13.33;100.00;95631.75;10483952;28;1953;-76
2022/06/07 03:28:10;;;;;;;;;;;14.10;99.90;;;13.41;100.00;95631.06;10485529;28;2364;-76
2022/06/07 03:33:13;;;;;;;;;;;13.60;99.90;;;13.40;100.00;95624.06;10503364;28;1835;-76
2022/06/07 03:38:16;;;;;;;;;;;14.10;99.90;;;13.47;100.00;95619.09;10499093;28;2047;-76
2022/06/07 03:43:19;;;;;;;;;;;14.20;99.90;;;13.56;100.00;95623.84;10486508;28;1871;-76
2022/06/07 03:48:23;;;;;;;;;;;14.30;99.90;;;13.60;100.00;95622.94;10487032;28;1995;-76
2022/06/07 03:53:26;;;;;;;;;;;14.30;99.90;;;13.61;100.00;95618.34;10481570;28;1794;-77
2022/06/07 03:58:29;;;;;;;;;;;14.30;99.90;;;13.68;100.00;95619.59;10510009;28;1977;-76
2022/06/07 04:03:34;;;;;;;;;;;14.40;99.90;;;13.54;100.00;95624.13;10504328;28;1824;-75
2022/06/07 04:08:37;;;;;;;;;;;14.30;99.90;;;13.63;100.00;95626.97;10483493;28;1871;-72
2022/06/07 04:13:40;;;;;;;;;;;14.30;99.90;;;13.68;100.00;95627.69;10487107;28;1824;-73
2022/06/07 04:18:54;;;;;;;;;;;14.40;99.90;;;13.63;100.00;95633.16;10481366;28;1914;-74
2022/06/07 04:23:57;;;;;;;;;;;14.30;99.90;;;13.69;100.00;95629.28;10509350;28;1836;-72
2022/06/07 04:29:01;;;;;;;;;;;14.40;99.90;;;13.62;100.00;95619.97;10493551;28;1864;-71
2022/06/07 04:34:04;;;;;;;;;;;14.30;99.90;;;13.56;100.00;95610.34;10478673;28;1812;-72
2022/06/07 04:39:07;;;;;;;;;;;14.30;99.90;;;13.62;100.00;95609.97;10514142;28;1914;-72
2022/06/07 04:44:10;;;;;;;;;;;14.40;99.90;;;13.61;100.00;95616.44;10486105;28;1771;-73
2022/06/07 04:49:13;;;;;;;;;;;14.30;99.90;;;13.57;100.00;95614.66;10505077;28;1811;-77
2022/06/07 04:54:17;;;;;;;;;;;14.30;99.90;;;13.58;100.00;95616.25;10485763;28;2202;-75
2022/06/07 04:59:20;;;;;;;;;;;14.20;99.90;;;13.68;100.00;95614.19;10496014;28;1903;-74
2022/06/07 05:04:23;;;;;;;;;;;14.30;99.90;;;13.72;100.00;95604.34;10503644;28;1850;-74
2022/06/07 05:09:29;;;;;;;;;;;14.50;99.90;;;13.72;100.00;95592.75;10489988;28;1935;-75
2022/06/07 05:14:32;;;;;;;;;;;14.30;99.90;;;13.83;100.00;95596.09;10511622;28;1838;-75
2022/06/07 05:19:35;;;;;;;;;;;14.40;99.90;;;13.86;100.00;95598.19;10514113;28;1926;-75
2022/06/07 05:24:39;;;;;;;;;;;14.50;99.90;;;13.94;100.00;95603.72;10504637;28;1980;-74
2022/06/07 05:29:42;;;;;;;;;;;14.60;99.90;;;13.88;100.00;95599.50;10507545;28;1834;-74
2022/06/07 05:34:45;;;;;;;;;;;14.60;99.90;;;13.94;100.00;95600.22;10489950;28;1791;-73
2022/06/07 05:39:49;;;;;;;;;;;14.70;99.90;;;13.92;100.00;95595.09;10488058;28;1959;-74
2022/06/07 05:44:52;;;;;;;;;;;14.60;99.90;;;13.89;100.00;95589.50;10503878;28;1775;-74
2022/06/07 05:49:55;;;;;;;;;;;14.60;99.90;;;13.96;100.00;95596.09;10494465;28;1775;-73
2022/06/07 05:54:58;;;;;;;;;;;14.60;99.90;;;13.99;100.00;95592.78;10494363;28;1845;-75
2022/06/07 06:00:02;;;;;;;;;;;14.70;99.90;;;14.03;100.00;95587.59;10505404;28;1910;-73
2022/06/07 06:05:05;;;;;;;;;;;14.80;99.90;;;14.05;100.00;95597.00;10487839;28;1753;-73
2022/06/07 06:10:21;;;;;;;;;;;14.80;99.90;;;14.02;100.00;95581.38;10489058;28;1809;-70
2022/06/07 06:15:24;;;;;;;;;;;14.90;99.90;;;14.15;100.00;95587.91;10512988;28;1832;-71
2022/06/07 06:20:27;;;;;;;;;;;14.80;99.90;;;14.40;100.00;95592.00;10496055;28;1958;-73
2022/06/07 06:25:30;;;;;;;;;;;15.00;99.90;;;14.47;100.00;95587.00;10513384;28;1891;-72
2022/06/07 06:30:34;;;;;;;;;;;15.20;99.90;;;14.62;100.00;95587.78;10504123;28;1799;-73
2022/06/07 06:35:37;;;;;;;;;;;15.20;99.90;;;15.31;100.00;95585.66;10486610;28;1843;-73
2022/06/07 06:40:41;;;;;;;;;;;15.30;99.90;;;15.72;100.00;95581.97;10482039;28;1981;-72
2022/06/07 06:45:44;;;;;;;;;;;16.00;99.90;;;15.84;100.00;95584.88;10495368;28;1860;-72
2022/06/07 06:50:47;;;;;;;;;;;16.40;99.90;;;15.44;100.00;95598.34;10490786;28;1854;-72
2022/06/07 06:55:50;;;;;;;;;;;16.30;99.90;;;15.43;100.00;95610.28;10501168;28;1834;-73
2022/06/07 07:00:54;;;;;;;;;;;16.20;99.90;;;15.34;100.00;95604.03;10505134;28;1937;-72
2022/06/07 07:05:57;;;;;;;;;;;16.00;99.90;;;15.08;100.00;95601.13;10506760;28;1808;-71
2022/06/07 07:11:00;;;;;;;;;;;16.00;99.90;;;14.85;100.00;95619.22;10517032;28;1806;-72
2022/06/07 07:16:04;;;;;;;;;;;15.80;99.90;;;14.56;100.00;95633.06;10485094;28;1904;-72
2022/06/07 07:21:07;;;;;;;;;;;15.50;99.90;;;14.25;100.00;95624.72;10505097;28;1930;-71
2022/06/07 07:26:11;;;;;;;;;;;15.20;99.90;;;14.28;100.00;95626.84;10501785;28;1877;-72
2022/06/07 07:31:14;;;;;;;;;;;15.00;99.90;;;14.51;100.00;95636.69;10501899;28;1932;-72
2022/06/07 07:36:17;;;;;;;;;;;15.00;99.90;;;14.56;100.00;95636.56;10503322;28;1956;-73
2022/06/07 07:41:20;;;;;;;;;;;15.10;99.90;;;14.47;100.00;95651.13;10504728;28;1971;-73
2022/06/07 07:46:23;;;;;;;;;;;15.10;99.90;;;14.42;100.00;95653.88;10500756;28;1875;-73
2022/06/07 07:51:27;;;;;;;;;;;15.10;99.90;;;14.36;100.00;95650.47;10505590;28;1898;-72
2022/06/07 07:56:30;;;;;;;;;;;15.20;99.90;;;14.13;100.00;95656.88;10480885;28;1838;-71
2022/06/07 08:01:35;;;;;;;;;;;14.90;99.90;;;14.30;100.00;95657.09;10501412;28;1821;-72
2022/06/07 08:06:38;;;;;;;;;;;14.90;99.90;;;14.38;100.00;95667.22;10481767;28;1956;-71
2022/06/07 08:11:41;;;;;;;;;;;14.90;99.90;;;14.45;100.00;95670.31;10503018;28;1928;-73
2022/06/07 08:16:45;;;;;;;;;;;15.10;99.90;;;14.37;100.00;95662.88;10493425;28;1971;-72
2022/06/07 08:21:48;;;;;;;;;;;15.00;99.90;;;14.29;100.00;95656.28;10481496;28;1869;-72
2022/06/07 08:26:52;;;;;;;;;;;15.00;99.90;;;14.59;100.00;95659.53;10495351;28;1751;-73
2022/06/07 08:31:55;;;;;;;;;;;15.10;99.90;;;14.68;100.00;95663.13;10511797;28;1825;-73
2022/06/07 08:42:19;;;;;;;;;;;15.20;99.90;;;14.64;100.00;95664.03;10511941;28;1876;-72
2022/06/07 08:47:23;;;;;;;;;;;15.10;99.90;;;14.95;100.00;95662.31;10516506;28;1957;-72
2022/06/07 08:52:26;;;;;;;;;;;15.40;99.90;;;15.14;100.00;95667.53;10497028;28;1812;-72
2022/06/07 08:57:30;;;;;;;;;;;15.60;99.90;;;15.24;100.00;95658.41;10482053;28;1985;-73
2022/06/07 09:02:35;;;;;;;;;;;15.70;99.90;;;15.25;100.00;95663.50;10506716;28;1939;-72
2022/06/07 09:07:38;;;;;;;;;;;15.70;99.90;;;15.00;100.00;95664.88;10499710;28;1899;-73
2022/06/07 09:12:41;;;;;;;;;;;15.00;99.90;;;14.67;100.00;95671.53;10503132;28;1877;-72
2022/06/07 09:17:45;;;;;;;;;;;15.40;99.90;;;14.66;100.00;95669.94;10503135;28;1917;-73
2022/06/07 09:22:48;;;;;;;;;;;15.40;99.90;;;14.69;100.00;95672.03;10485302;28;1951;-73
2022/06/07 09:27:51;;;;;;;;;;;15.30;99.90;;;14.65;100.00;95663.72;10508496;28;2111;-73
2022/06/07 09:32:55;;;;;;;;;;;15.20;99.90;;;14.83;100.00;95664.72;10511915;28;1980;-73
2022/06/07 09:37:57;;;;;;;;;;;15.30;99.90;;;15.05;100.00;95666.69;10506740;28;1910;-73
2022/06/07 09:43:01;;;;;;;;;;;15.80;99.90;;;15.19;100.00;95656.59;10501990;28;1858;-73
2022/06/07 09:48:04;;;;;;;;;;;15.50;99.90;;;15.23;100.00;95654.09;10507101;28;1810;-72
2022/06/07 09:53:07;;;;;;;;;;;15.60;99.90;;;15.33;100.00;95661.97;10489141;28;1789;-72
2022/06/07 09:58:10;;;;;;;;;;;15.70;99.90;;;15.67;100.00;95656.88;10511425;28;2240;-73
2022/06/07 10:03:13;;;;;;;;;;;16.00;99.90;;;15.54;100.00;95652.28;10508781;28;1882;-70
2022/06/07 10:08:18;;;;;;;;;;;16.00;99.90;;;15.59;100.00;95649.47;10487789;28;1895;-70
2022/06/07 10:13:21;;;;;;;;;;;16.20;99.90;;;15.76;100.00;95651.50;10508716;28;1847;-72
2022/06/07 10:18:24;;;;;;;;;;;16.20;99.90;;;16.06;100.00;95641.00;10501994;28;1955;-72
2022/06/07 10:23:27;;;;;;;;;;;16.30;99.90;;;16.16;100.00;95641.53;10491632;28;1809;-72
2022/06/07 10:28:31;;;;;;;;;;;16.60;99.90;;;16.17;100.00;95640.41;10513024;28;1882;-72
2022/06/07 10:33:34;;;;;;;;;;;16.70;99.90;;;16.45;100.00;95640.19;10500119;28;1867;-72
2022/06/07 10:38:39;;;;;;;;;;;17.00;99.90;;;17.27;100.00;95628.56;10481826;28;1984;-72
2022/06/07 10:43:42;;;;;;;;;;;17.40;99.90;;;17.27;100.00;95636.72;10501762;28;1869;-72
2022/06/07 10:48:46;;;;;;;;;;;17.70;99.90;;;17.01;100.00;95638.63;10501236;28;1821;-72
2022/06/07 10:53:49;;;;;;;;;;;17.50;99.90;;;17.41;100.00;95622.16;10503235;28;1856;-72
2022/06/07 10:58:52;;;;;;;;;;;17.50;99.90;;;17.96;100.00;95621.47;10508231;28;1975;-72
2022/06/07 11:03:55;;;;;;;;;;;18.00;99.90;;;18.28;100.00;95615.44;10504899;28;1895;-73
2022/06/07 11:14:19;;;;;;;;;;;19.00;99.90;;;19.69;93.92;95617.78;10496803;28;1638;-73
2022/06/07 11:19:22;;;;;;;;;;;19.70;99.90;;;19.03;86.74;95620.38;10506770;28;1969;-73
2022/06/07 11:24:25;;;;;;;;;;;19.90;99.90;;;19.50;92.29;95612.78;10487079;28;1976;-73
2022/06/07 11:29:28;;;;;;;;;;;19.80;99.90;;;20.07;84.71;95603.91;10485537;28;1820;-73
2022/06/07 11:34:31;;;;;;;;;;;20.10;99.90;;;20.11;86.26;95601.31;10483061;28;1835;-73
2022/06/07 11:39:34;;;;;;;;;;;20.30;99.90;;;20.15;81.31;95602.19;10499551;28;1969;-73
2022/06/07 11:44:37;;;;;;;;;;;20.30;99.90;;;19.74;82.97;95614.03;10488811;28;1783;-72
2022/06/07 11:49:41;;;;;;;;;;;20.20;99.90;;;19.07;88.04;95603.00;10480181;28;2343;-73
2022/06/07 11:54:44;;;;;;;;;;;19.70;99.90;;;19.04;85.92;95600.97;10496783;28;1792;-72
2022/06/07 12:00:08;;;;;;;;;;;;;;;19.12;84.31;95600.09;10490816;28;1902;-71
2022/06/07 12:05:10;;;;;;;;;;;19.60;99.90;;;19.44;82.75;95595.03;10479933;28;1852;-69
2022/06/07 12:10:14;;;;;;;;;;;;;;;19.72;79.16;95595.25;10508720;28;1784;-69
2022/06/07 12:15:18;;;;;;;;;;;;;;;20.49;80.42;95592.84;10498797;28;1847;-72
2022/06/07 12:20:22;;;;;;;;;;;;;;;20.97;72.44;95588.47;10499050;28;1909;-70
2022/06/07 12:25:25;;;;;;;;;;;;;;;20.54;72.78;95583.59;10503920;28;1791;-70
2022/06/07 12:30:30;;;;;;;;;;;;;;;20.27;75.34;95577.66;10490208;28;1846;-70
2022/06/07 12:35:34;;;;;;;;;;;;;;;20.92;71.39;95573.09;10512010;28;1790;-70
2022/06/07 12:40:38;;;;;;;;;;;;;;;21.71;67.46;95575.38;10496431;28;2005;-69
2022/06/07 12:45:41;;;;;;;;;;;;;;;21.75;61.51;95573.53;10475432;28;1923;-69
2022/06/07 12:50:45;;;;;;;;;;;;;;;21.38;62.89;95554.56;10504467;28;1963;-69
2022/06/07 12:55:48;;;;;;;;;;;;;;;21.03;62.50;95554.28;10478486;28;1828;-69
2022/06/07 13:00:54;;;;;;;;;;;;;;;21.09;61.94;95552.13;10506578;28;2224;-71
2022/06/07 13:05:58;;;;;;;;;;;;;;;21.16;60.51;95549.59;10516354;28;1822;-70
2022/06/07 13:11:01;;;;;;;;;;;;;;;21.91;57.94;95554.41;10513220;28;1843;-69
2022/06/07 13:16:05;;;;;;;;;;;;;;;22.48;58.71;95544.91;10505266;28;1873;-69
2022/06/07 13:21:09;;;;;;;;;;;;;;;22.05;54.67;95532.88;10499771;28;1961;-69
2022/06/07 13:26:15;;;;;;;;;;;22.40;99.90;;;21.58;56.22;95530.88;10508021;28;1849;-69
2022/06/07 13:31:18;;;;;;;;;;;22.00;99.90;;;22.18;54.42;95530.88;10506672;28;1790;-70
2022/06/07 13:36:21;;;;;;;;;;;22.30;99.90;;;21.97;56.74;95529.16;10505149;28;1806;-70
2022/06/07 13:41:24;;;;;;;;;;;22.60;99.90;;;22.25;52.42;95514.63;10501783;28;1950;-68
2022/06/07 13:46:28;;;;;;;;;;;22.50;99.90;;;21.99;52.09;95513.19;10480412;28;1782;-70
2022/06/07 13:56:57;;;;;;;;;;;22.20;99.90;;;22.05;53.69;95521.94;10502350;28;1840;-70
2022/06/07 14:02:01;;;;;;;;;;;22.30;99.90;;;21.80;52.15;95507.59;10490691;28;1984;-70
2022/06/07 14:07:07;;;;;;;;;;;22.40;99.90;;;21.98;53.48;95511.59;10504198;28;1798;-70
2022/06/07 14:12:10;;;;;;;;;;;22.40;99.90;;;21.58;56.19;95509.00;10506149;28;1830;-68
2022/06/07 14:17:13;;;;;;;;;;;22.10;99.90;;;21.61;54.42;95502.81;10501987;28;1834;-69
2022/06/07 14:22:17;;;;;;;;;;;22.00;99.90;;;20.79;53.78;95505.97;10515344;28;1977;-68
2022/06/07 14:27:20;;;;;;;;;;;21.80;99.90;;;20.36;55.16;95520.22;10483085;28;1866;-70
2022/06/07 14:32:23;;;;;;;;;;;21.30;99.90;;;20.34;56.00;95506.13;10500928;28;1861;-69
2022/06/07 14:37:27;;;;;;;;;;;21.10;99.90;;;19.94;58.04;95504.88;10494013;28;1852;-69
2022/06/07 14:42:30;;;;;;;;;;;20.90;99.90;;;19.61;59.15;95504.13;10497259;28;1989;-69
2022/06/07 14:47:33;;;;;;;;;;;20.50;99.90;;;19.28;61.09;95499.47;10519708;28;1834;-70
2022/06/07 14:52:36;;;;;;;;;;;20.20;99.90;;;19.37;63.99;95492.00;10485329;28;1844;-70
2022/06/07 14:57:43;;;;;;;;;;;20.20;99.90;;;19.54;62.22;95492.97;10498020;28;1815;-69
2022/06/07 15:02:47;;;;;;;;;;;20.20;99.90;;;19.47;63.95;95490.78;10480440;28;1973;-70
2022/06/07 15:07:50;;;;;;;;;;;20.10;99.90;;;19.08;63.58;95494.84;10497329;28;1958;-70
2022/06/07 15:12:53;;;;;;;;;;;20.30;99.90;;;19.25;63.85;95493.88;10493197;28;2137;-69
2022/06/07 15:17:57;;;;;;;;;;;19.90;99.90;;;18.77;62.95;95484.41;10513704;28;2136;-68
2022/06/07 15:23:00;;;;;;;;;;;19.70;99.90;;;18.94;61.65;95488.88;10494495;28;1910;-67
2022/06/07 15:28:03;;;;;;;;;;;19.70;99.90;;;18.99;60.75;95483.25;10486742;28;1828;-70
2022/06/07 15:33:08;;;;;;;;;;;19.70;99.90;;;19.45;60.35;95477.47;10487376;28;1832;-69
2022/06/07 15:38:12;;;;;;;;;;;19.80;99.90;;;19.57;59.85;95475.91;10501772;28;1887;-69
2022/06/07 15:43:16;;;;;;;;;;;20.10;99.90;;;19.88;59.27;95486.34;10490853;28;1975;-69
2022/06/07 15:48:20;;;;;;;;;;;20.30;99.90;;;20.11;59.78;95478.50;10485982;28;1956;-69
2022/06/07 15:53:23;;;;;;;;;;;20.60;99.90;;;19.99;61.20;95468.38;10512931;28;1845;-69
2022/06/07 16:03:54;;;;;;;;;;;20.50;99.90;;;19.68;61.94;95468.94;10501137;28;1828;-70
2022/06/07 16:08:58;;;;;;;;;;;20.40;99.90;;;19.42;63.08;95474.66;10514029;28;2178;-70
2022/06/07 16:14:02;;;;;;;;;;;20.20;99.90;;;19.30;66.43;95464.50;10502023;28;1873;-69
2022/06/07 16:19:06;;;;;;;;;;;20.20;99.90;;;19.35;65.03;95469.75;10501068;28;1987;-69
2022/06/07 16:24:11;;;;;;;;;;;20.10;99.90;;;19.44;66.62;95470.44;10494836;28;1814;-72
2022/06/07 16:34:36;;;;;;;;;;;20.20;99.90;;;19.81;66.96;95478.72;10514407;28;1872;-75
2022/06/07 16:39:38;;;;;;;;;;;20.40;99.90;;;19.72;64.75;95475.28;10528945;28;1989;-77
2022/06/07 16:44:42;;;;;;;;;;;20.50;99.90;;;19.94;63.24;95472.13;10544112;28;1763;-79
2022/06/07 16:49:45;;;;;;;;;;;20.60;99.90;;;20.08;62.50;95471.78;10517674;28;1905;-78
2022/06/07 16:54:48;;;;;;;;;;;20.70;99.90;;;20.11;62.57;95468.38;10502696;28;1766;-77
2022/06/07 16:59:51;;;;;;;;;;;20.70;99.90;;;19.94;63.14;95477.59;10506744;28;1935;-75
2022/06/07 17:04:55;;;;;;;;;;;20.70;99.90;;;19.88;64.80;95473.50;10516277;28;1772;-77
2022/06/07 17:09:59;;;;;;;;;;;20.50;99.90;;;19.48;67.72;95470.56;10492174;28;1852;-76
2022/06/07 17:15:03;;;;;;;;;;;20.30;99.90;;;19.43;69.02;95477.03;10509917;28;1914;-76
2022/06/07 17:20:06;;;;;;;;;;;20.20;99.90;;;19.42;69.58;95477.38;10490167;28;1975;-75
2022/06/07 17:25:10;;;;;;;;;;;20.20;99.90;;;19.22;71.08;95479.03;10485006;28;1773;-76
2022/06/07 17:30:13;;;;;;;;;;;20.10;99.90;;;19.09;72.12;95480.91;10512027;28;1851;-76
2022/06/07 17:35:17;;;;;;;;;;;;;;;19.05;72.55;95473.72;10490740;28;1845;-74
2022/06/07 17:40:20;;;;;;;;;;;;;;;19.11;73.27;95480.56;10479512;28;1954;-75
2022/06/07 17:45:24;;;;;;;;;;;;;;;18.96;74.23;95476.53;10503606;28;1775;-74
2022/06/07 17:50:27;;;;;;;;;;;19.80;99.90;;;18.80;76.66;95470.88;10496129;28;1612;-75
2022/06/07 17:55:31;;;;;;;;;;;19.70;99.90;;;19.04;75.91;95472.94;10482201;28;1819;-75
2022/06/07 18:00:34;;;;;;;;;;;19.80;99.90;;;18.73;78.79;95475.28;10491627;28;1917;-74
2022/06/07 18:05:37;;;;;;;;;;;19.70;99.90;;;18.63;80.66;95482.69;10509926;28;1805;-75
2022/06/07 18:10:40;;;;;;;;;;;19.60;99.90;;;18.57;82.70;95494.09;10508597;28;1843;-74
2022/06/07 18:15:42;;;;;;;;;;;19.50;99.90;;;18.70;83.34;95481.38;10514146;28;2220;-76
2022/06/07 18:20:49;;;;;;;;;;;19.50;99.90;;;18.93;82.46;95477.19;10488398;28;1942;-75
2022/06/07 18:25:54;;;;;;;;;;;;;;;18.85;83.73;95476.13;10509860;28;1911;-77
2022/06/07 18:30:59;;;;;;;;;;;;;;;18.89;83.19;95478.97;10490810;28;1839;-77
2022/06/07 18:36:04;;;;;;;;;;;;;;;18.83;83.98;95477.59;10515536;28;1631;-78
2022/06/07 18:41:08;;;;;;;;;;;;;;;18.64;85.97;95478.06;10507306;28;2025;-76
2022/06/07 18:46:12;;;;;;;;;;;;;;;18.49;86.63;95484.88;10502842;28;1764;-76
2022/06/07 18:51:17;;;;;;;;;;;;;;;18.15;90.13;95485.88;10506410;28;1754;-71
2022/06/07 18:56:20;;;;;;;;;;;;;;;17.88;92.79;95491.75;10507155;28;1799;-72
2022/06/07 19:01:24;;;;;;;;;;;;;;;17.72;94.55;95489.59;10509824;28;1914;-72
2022/06/07 19:06:28;;;;;;;;;;;;;;;17.53;95.72;95491.88;10496204;28;1793;-69
2022/06/07 19:11:34;;;;;;;;;;;;;;;17.40;97.17;95498.31;10507146;28;1787;-75
2022/06/07 19:16:37;;;;;;;;;;;;;;;17.33;100.00;95514.31;10500446;28;1741;-71
2022/06/07 19:21:42;;;;;;;;;;;;;;;17.06;100.00;95512.75;10476210;28;1914;-71
2022/06/07 19:26:45;;;;;;;;;;;18.20;99.90;;;16.65;100.00;95527.56;10492301;28;1839;-72
2022/06/07 19:31:48;;;;;;;;;;;;;;;16.45;100.00;95534.38;10472919;28;1874;-72
2022/06/07 19:36:52;;;;;;;;;;;;;;;16.40;100.00;95534.53;10496822;28;1782;-73
2022/06/07 19:41:58;;;;;;;;;;;;;;;16.34;100.00;95543.94;10478869;28;1981;-71
2022/06/07 19:47:02;;;;;;;;;;;;;;;16.32;100.00;95535.31;10489039;28;1749;-72
2022/06/07 19:52:05;;;;;;;;;;;17.10;99.90;;;16.38;100.00;95550.34;10497363;28;1921;-71
2022/06/07 19:57:09;;;;;;;;;;;;;;;16.38;100.00;95547.63;10479224;28;1792;-72
2022/06/07 20:02:13;;;;;;;;;;;;;;;16.37;100.00;95551.44;10491089;28;1910;-71
2022/06/07 20:07:16;;;;;;;;;;;;;;;16.41;100.00;95555.13;10486644;28;1758;-69
2022/06/07 20:12:20;;;;;;;;;;;;;;;16.31;100.00;95560.84;10493748;28;2034;-70
2022/06/07 20:17:23;;;;;;;;;;;;;;;16.30;100.00;95553.84;10483864;28;1781;-72
2022/06/07 20:22:27;;;;;;;;;;;;;;;16.26;100.00;95550.13;10498584;28;1933;-70
2022/06/07 20:27:31;;;;;;;;;;;;;;;16.21;100.00;95549.16;10504310;28;1867;-72
2022/06/07 20:32:34;;;;;;;;;;;;;;;16.21;100.00;95541.03;10498798;28;1860;-72
2022/06/07 20:37:38;;;;;;;;;;;;;;;16.15;100.00;95547.69;10482939;28;1861;-73
2022/06/07 20:42:41;;;;;;;;;;;;;;;16.10;100.00;95545.16;10499286;28;1902;-70
2022/06/07 20:47:45;;;;;;;;;;;;;;;16.09;100.00;95540.81;10509640;28;2165;-70
2022/06/07 20:52:48;;;;;;;;;;;16.90;99.90;;;16.07;100.00;95536.84;10486777;28;1867;-70
2022/06/07 20:57:51;;;;;;;;;;;16.90;99.90;;;15.95;100.00;95535.53;10508643;28;1822;-69
2022/06/07 21:02:55;;;;;;;;;;;;;;;15.94;100.00;95547.47;10495799;28;1914;-71
2022/06/07 21:07:58;;;;;;;;;;;;;;;15.88;100.00;95540.59;10498796;28;1800;-72
2022/06/07 21:13:01;;;;;;;;;;;;;;;15.82;100.00;95541.03;10482738;28;1892;-72
2022/06/07 21:18:05;;;;;;;;;;;;;;;15.74;100.00;95541.81;10500693;28;1849;-71
2022/06/07 21:23:09;;;;;;;;;;;16.70;99.90;;;15.65;100.00;95542.59;10478016;28;1925;-71
2022/06/07 21:28:12;;;;;;;;;;;16.50;99.90;;;15.54;100.00;95543.91;10505203;28;1858;-71
2022/06/07 21:33:15;;;;;;;;;;;16.50;99.90;;;15.44;100.00;95549.59;10489955;28;1988;-71
2022/06/07 21:38:20;;;;;;;;;;;16.40;99.90;;;15.31;100.00;95539.63;10509688;28;1858;-71
2022/06/07 21:43:23;;;;;;;;;;;16.20;99.90;;;15.39;100.00;95549.72;10494179;28;1906;-71
2022/06/07 21:48:26;;;;;;;;;;;16.20;99.90;;;15.42;100.00;95557.22;10500803;28;1570;-72
2022/06/07 21:53:30;;;;;;;;;;;16.20;99.90;;;15.25;100.00;95557.09;10494827;28;1898;-71
2022/06/07 21:58:33;;;;;;;;;;;16.20;99.90;;;15.14;100.00;95551.97;10510969;28;1918;-71
2022/06/07 22:03:37;;;;;;;;;;;16.00;99.90;;;14.99;100.00;95546.88;10506681;28;1984;-71
2022/06/07 22:08:40;;;;;;;;;;;16.00;99.90;;;14.74;100.00;95545.56;10507266;28;2184;-71
2022/06/07 22:13:46;;;;;;;;;;;15.70;99.90;;;14.64;100.00;95545.81;10511199;28;1849;-70
2022/06/07 22:18:51;;;;;;;;;;;;;;;14.63;100.00;95541.47;10505708;28;1531;-70
2022/06/07 22:23:54;;;;;;;;;;;;;;;14.47;100.00;95532.13;10497949;28;1910;-71
2022/06/07 22:34:19;;;;;;;;;;;;;;;14.21;100.00;95531.84;10489741;28;1897;-71
2022/06/07 22:39:23;;;;;;;;;;;15.10;99.90;;;14.23;100.00;95526.91;10504879;28;1880;-71
2022/06/07 22:44:27;;;;;;;;;;;15.10;99.90;;;14.07;100.00;95523.75;10502407;28;1913;-70
2022/06/07 22:49:30;;;;;;;;;;;15.10;99.90;;;13.99;100.00;95517.13;10506777;28;1949;-71
2022/06/07 22:54:33;;;;;;;;;;;15.00;99.90;;;14.01;100.00;95508.72;10504180;28;1887;-71
2022/06/07 22:59:36;;;;;;;;;;;14.90;99.90;;;13.96;100.00;95514.22;10486617;28;1822;-71
2022/06/07 23:04:40;;;;;;;;;;;14.90;99.90;;;13.92;100.00;95505.91;10500181;28;1914;-72
2022/06/07 23:09:44;;;;;;;;;;;14.90;99.90;;;13.87;100.00;95497.94;10504119;28;1826;-70
2022/06/07 23:20:07;;;;;;;;;;;14.90;99.90;;;13.79;100.00;95495.91;10501238;28;1818;-71
2022/06/07 23:25:11;;;;;;;;;;;14.80;99.90;;;13.72;100.00;95493.59;10496607;28;1917;-71
2022/06/07 23:30:14;;;;;;;;;;;14.70;99.90;;;13.65;100.00;95482.41;10502188;28;1851;-71
2022/06/07 23:35:16;;;;;;;;;;;14.60;99.90;;;13.57;100.00;95485.00;10478171;28;1917;-71
2022/06/07 23:40:19;;;;;;;;;;;14.60;99.90;;;13.54;100.00;95481.00;10497514;28;1840;-70
2022/06/07 23:45:22;;;;;;;;;;;14.50;99.90;;;13.50;100.00;95483.50;10478525;28;1946;-71
2022/06/07 23:50:25;;;;;;;;;;;14.60;99.90;;;13.43;100.00;95477.72;10477121;28;1965;-71
2022/06/07 23:55:28;;;;;;;;;;;14.50;99.90;;;13.39;100.00;95476.69;10494694;28;1928;-71
